createdAt,value
2018-03-29T00:01:12.960Z,71.10
2018-03-29T00:03:39.914Z,71.70
2018-03-29T00:06:07.832Z,71.20
2018-03-29T00:08:34.035Z,70.80
2018-03-29T00:11:00.250Z,70.80
2018-03-29T00:13:26.459Z,70.80
2018-03-29T00:15:53.003Z,70.90
2018-03-29T00:18:21.321Z,71.50
2018-03-29T00:20:49.448Z,71.50
2018-03-29T00:23:16.460Z,72.40
2018-03-29T00:25:45.039Z,70.90
2018-03-29T00:28:11.585Z,70.90
2018-03-29T00:30:38.160Z,70.20
2018-03-29T00:33:05.170Z,71.20
2018-03-29T00:35:31.421Z,70.80
2018-03-29T00:37:57.637Z,74.10
2018-03-29T00:40:23.894Z,76.90
2018-03-29T00:42:50.843Z,71.50
2018-03-29T00:45:17.822Z,70.10
2018-03-29T00:47:44.724Z,71.00
2018-03-29T00:50:11.650Z,71.40
2018-03-29T00:52:37.889Z,73.80
2018-03-29T00:55:04.111Z,75.10
2018-03-29T00:57:30.326Z,74.80
2018-03-29T00:59:58.033Z,70.80
2018-03-29T01:02:24.980Z,71.40
2018-03-29T01:04:51.144Z,72.00
2018-03-29T01:07:18.301Z,70.80
2018-03-29T01:09:44.502Z,74.70
2018-03-29T01:12:11.480Z,75.20
2018-03-29T01:14:38.610Z,71.50
2018-03-29T01:17:04.784Z,78.20
2018-03-29T01:19:31.099Z,75.70
2018-03-29T01:21:58.064Z,71.50
2018-03-29T01:24:24.248Z,70.90
2018-03-29T01:26:50.442Z,70.80
2018-03-29T01:29:17.382Z,71.40
2018-03-29T01:31:44.341Z,72.50
2018-03-29T01:34:11.642Z,72.50
2018-03-29T01:36:38.635Z,70.80
2018-03-29T01:39:04.859Z,74.00
2018-03-29T01:51:17.742Z,71.40
2018-03-29T01:53:44.670Z,71.40
2018-03-29T01:56:11.806Z,70.80
2018-03-29T01:58:38.773Z,76.30
2018-03-29T02:01:04.982Z,74.20
2018-03-29T02:03:31.156Z,74.50
2018-03-29T02:05:59.822Z,71.30
2018-03-29T02:08:27.434Z,71.30
2018-03-29T02:10:54.398Z,70.80
2018-03-29T02:13:20.570Z,71.00
2018-03-29T02:15:47.493Z,71.00
2018-03-29T02:18:13.834Z,70.70
2018-03-29T02:20:40.927Z,71.30
2018-03-29T02:23:07.114Z,70.70
2018-03-29T02:25:34.024Z,71.00
2018-03-29T02:28:00.195Z,73.00
2018-03-29T02:30:27.226Z,71.30
2018-03-29T02:32:53.463Z,70.70
2018-03-29T02:35:20.418Z,71.30
2018-03-29T02:37:47.349Z,70.40
2018-03-29T02:40:14.284Z,72.80
2018-03-29T02:42:41.290Z,74.50
2018-03-29T02:45:08.679Z,71.10
2018-03-29T02:47:34.873Z,72.80
2018-03-29T02:50:01.081Z,71.80
2018-03-29T02:52:27.277Z,72.90
2018-03-29T02:54:53.455Z,70.30
2018-03-29T02:57:19.684Z,72.90
2018-03-29T02:59:45.882Z,73.50
2018-03-29T03:02:12.823Z,71.30
2018-03-29T03:04:39.792Z,71.30
2018-03-29T03:07:07.109Z,70.70
2018-03-29T03:09:33.439Z,70.70
2018-03-29T03:12:00.513Z,70.70
2018-03-29T03:14:29.433Z,71.20
2018-03-29T03:16:55.746Z,74.30
2018-03-29T03:19:21.942Z,73.90
2018-03-29T03:21:48.840Z,73.60
2018-03-29T03:24:15.023Z,71.30
2018-03-29T03:36:27.031Z,71.20
2018-03-29T03:38:53.241Z,73.90
2018-03-29T03:41:19.482Z,74.00
2018-03-29T03:43:47.227Z,76.80
2018-03-29T03:46:14.151Z,72.50
2018-03-29T03:48:41.080Z,73.10
2018-03-29T04:00:52.335Z,73.00
2018-03-29T04:03:18.502Z,75.10
2018-03-29T04:05:44.726Z,73.30
2018-03-29T04:08:12.259Z,73.30
2018-03-29T04:10:38.561Z,74.00
2018-03-29T04:13:05.554Z,73.20
2018-03-29T04:15:32.530Z,73.50
2018-03-29T04:17:59.062Z,73.10
2018-03-29T04:20:25.242Z,73.30
2018-03-29T04:22:51.448Z,78.30
2018-03-29T04:25:18.400Z,74.00
2018-03-29T04:40:45.357Z,75.40
2018-03-29T04:43:12.290Z,75.20
2018-03-29T04:45:39.256Z,75.20
2018-03-29T04:48:05.440Z,75.80
2018-03-29T04:50:31.650Z,83.40
2018-03-29T04:53:00.781Z,75.20
2018-03-29T04:55:28.706Z,75.50
2018-03-29T04:57:55.745Z,80.40
2018-03-29T05:00:23.510Z,75.60
2018-03-29T05:02:50.445Z,76.00
2018-03-29T05:05:17.387Z,76.00
2018-03-29T05:07:44.324Z,75.50
2018-03-29T05:10:10.569Z,77.10
2018-03-29T05:12:37.498Z,76.10
2018-03-29T05:15:03.684Z,76.90
2018-03-29T05:17:29.848Z,82.00
2018-03-29T05:19:57.617Z,76.50
2018-03-29T05:22:23.771Z,82.90
2018-03-29T05:24:50.330Z,76.10
2018-03-29T05:27:19.534Z,75.90
2018-03-29T05:29:46.148Z,75.70
2018-03-29T05:32:12.351Z,79.10
2018-03-29T05:34:39.084Z,78.80
2018-03-29T05:37:05.348Z,75.40
2018-03-29T05:39:32.276Z,76.00
2018-03-29T05:41:59.398Z,75.80
2018-03-29T05:44:26.006Z,75.70
2018-03-29T05:46:52.256Z,75.50
2018-03-29T05:49:19.540Z,78.30
2018-03-29T05:51:45.747Z,76.80
2018-03-29T05:54:11.983Z,76.90
2018-03-29T05:56:38.255Z,75.20
2018-03-29T05:59:05.071Z,75.50
2018-03-29T06:01:32.352Z,75.50
2018-03-29T06:03:59.837Z,75.50
2018-03-29T06:06:26.877Z,76.00
2018-03-29T06:08:54.486Z,75.50
2018-03-29T06:11:20.748Z,75.30
2018-03-29T06:13:54.695Z,75.20
2018-03-29T06:16:21.292Z,75.00
2018-03-29T06:18:47.642Z,76.50
2018-03-29T06:21:16.006Z,74.90
2018-03-29T06:23:42.588Z,74.70
2018-03-29T06:26:09.165Z,74.50
2018-03-29T06:28:36.526Z,74.50
2018-03-29T06:31:02.763Z,74.60
2018-03-29T06:33:30.107Z,78.10
2018-03-29T06:35:57.149Z,74.90
2018-03-29T06:38:24.239Z,75.00
2018-03-29T06:40:50.819Z,74.50
2018-03-29T06:43:19.617Z,76.50
2018-03-29T06:45:45.787Z,75.70
2018-03-29T06:48:12.414Z,73.10
2018-03-29T06:50:38.695Z,76.90
2018-03-29T06:53:05.431Z,73.60
2018-03-29T06:55:31.643Z,73.80
2018-03-29T06:57:58.644Z,72.10
2018-03-29T07:00:27.195Z,71.50
2018-03-29T07:02:53.407Z,72.20
2018-03-29T07:05:20.968Z,71.60
2018-03-29T07:07:48.242Z,71.60
2018-03-29T07:19:59.456Z,67.00
2018-03-29T07:22:25.739Z,63.50
2018-03-29T07:24:52.638Z,60.60
2018-03-29T07:27:18.834Z,58.60
2018-03-29T07:29:45.764Z,54.60
2018-03-29T07:32:12.787Z,52.50
2018-03-29T07:34:38.999Z,51.80
2018-03-29T07:37:05.252Z,51.50
2018-03-29T07:39:31.813Z,50.50
2018-03-29T07:41:58.722Z,47.80
2018-03-29T07:44:25.599Z,45.50
2018-03-29T07:46:53.520Z,47.40
2018-03-29T07:49:19.707Z,48.20
2018-03-29T07:51:46.695Z,45.90
2018-03-29T07:54:13.911Z,45.90
2018-03-29T07:56:40.131Z,45.40
2018-03-29T07:59:07.042Z,45.70
2018-03-29T08:01:33.291Z,43.60
2018-03-29T08:04:01.118Z,43.80
2018-03-29T08:06:27.353Z,41.90
2018-03-29T08:08:53.983Z,40.50
2018-03-29T08:11:21.398Z,40.00
2018-03-29T08:13:47.661Z,38.40
2018-03-29T08:16:14.200Z,38.10
2018-03-29T08:18:40.395Z,38.50
2018-03-29T08:21:06.636Z,38.30
2018-03-29T08:23:32.825Z,37.60
2018-03-29T08:25:59.824Z,36.10
2018-03-29T08:28:26.051Z,36.90
2018-03-29T08:30:52.271Z,36.20
2018-03-29T08:33:18.652Z,35.50
2018-03-29T08:35:44.889Z,37.20
2018-03-29T08:47:56.829Z,38.90
2018-03-29T08:50:23.048Z,40.60
2018-03-29T08:52:49.754Z,39.80
2018-03-29T08:57:44.650Z,46.00
2018-03-29T09:00:11.553Z,42.90
2018-03-29T09:12:22.792Z,44.40
2018-03-29T09:14:49.945Z,42.60
2018-03-29T09:17:16.135Z,40.90
2018-03-29T09:19:44.023Z,41.00
2018-03-29T09:22:10.363Z,39.90
2018-03-29T09:24:36.621Z,39.90
2018-03-29T09:27:03.186Z,41.20
2018-03-29T09:29:30.118Z,41.00
2018-03-29T09:31:57.130Z,40.70
2018-03-29T09:34:23.330Z,38.70
2018-03-29T09:46:36.742Z,35.70
2018-03-29T09:49:03.232Z,35.80
2018-03-29T09:51:29.418Z,32.80
2018-03-29T09:53:55.634Z,34.90
2018-03-29T09:56:21.819Z,36.70
2018-03-29T09:58:48.015Z,33.80
2018-03-29T10:01:15.820Z,31.40
2018-03-29T10:06:46.639Z,29.80
2018-03-29T10:09:12.855Z,29.90
2018-03-29T10:11:39.122Z,29.90
2018-03-29T10:14:05.334Z,29.70
2018-03-29T10:16:31.563Z,28.20
2018-03-29T10:18:57.772Z,28.70
2018-03-29T10:21:23.960Z,29.90
2018-03-29T10:23:50.956Z,35.00
2018-03-29T10:26:17.958Z,37.70
2018-03-29T10:28:44.873Z,38.90
2018-03-29T10:31:11.082Z,39.20
2018-03-29T10:33:37.344Z,40.00
2018-03-29T10:36:03.581Z,36.80
2018-03-29T10:38:30.578Z,38.30
2018-03-29T10:40:56.822Z,38.70
2018-03-29T10:43:23.067Z,40.20
2018-03-29T10:45:49.635Z,40.20
2018-03-29T10:48:16.640Z,40.00
2018-03-29T10:50:42.845Z,38.90
2018-03-29T10:53:09.126Z,36.50
2018-03-29T10:55:36.084Z,36.50
2018-03-29T10:58:03.071Z,34.90
2018-03-29T11:00:29.968Z,35.40
2018-03-29T11:02:56.889Z,30.00
2018-03-29T11:05:23.098Z,28.90
2018-03-29T11:07:49.292Z,27.80
2018-03-29T11:10:15.566Z,27.20
2018-03-29T11:12:41.741Z,26.50
2018-03-29T11:15:07.953Z,27.50
2018-03-29T11:17:35.196Z,29.70
2018-03-29T11:20:01.522Z,30.70
2018-03-29T11:22:27.705Z,28.20
2018-03-29T11:24:53.943Z,25.50
2018-03-29T11:27:20.177Z,26.30
2018-03-29T11:29:46.465Z,25.20
2018-03-29T11:32:13.449Z,24.80
2018-03-29T11:34:39.638Z,24.80
2018-03-29T11:37:06.619Z,26.30
2018-03-29T11:39:32.842Z,26.40
2018-03-29T11:41:59.033Z,28.20
2018-03-29T11:44:26.068Z,30.20
2018-03-29T11:46:52.298Z,32.40
2018-03-29T11:49:18.490Z,34.60
2018-03-29T11:51:45.100Z,36.10
2018-03-29T11:54:11.712Z,37.50
2018-03-29T11:56:37.940Z,47.00
2018-03-29T11:59:04.182Z,43.90
2018-03-29T12:01:31.118Z,38.40
2018-03-29T12:03:58.113Z,39.70
2018-03-29T12:06:24.344Z,51.20
2018-03-29T12:08:50.558Z,48.90
2018-03-29T12:11:16.779Z,39.60
2018-03-29T12:13:44.037Z,34.90
2018-03-29T12:16:10.219Z,35.90
2018-03-29T12:18:37.908Z,27.50
2018-03-29T12:21:04.979Z,25.30
2018-03-29T12:23:31.244Z,29.20
2018-03-29T12:25:58.109Z,27.00
2018-03-29T12:28:24.494Z,31.70
2018-03-29T12:31:06.129Z,24.10
2018-03-29T12:33:33.131Z,24.50
2018-03-29T12:35:59.339Z,23.20
2018-03-29T12:38:26.287Z,21.50
2018-03-29T12:40:52.555Z,20.50
2018-03-29T12:43:19.571Z,21.50
2018-03-29T12:45:46.622Z,21.40
2018-03-29T12:48:13.593Z,21.00
2018-03-29T12:50:40.597Z,19.60
2018-03-29T12:53:07.589Z,19.40
2018-03-29T12:55:40.922Z,21.80
2018-03-29T12:58:10.033Z,26.00
2018-03-29T13:00:37.042Z,29.10
2018-03-29T13:03:03.598Z,29.80
2018-03-29T13:05:29.828Z,32.10
2018-03-29T13:07:56.459Z,33.50
2018-03-29T13:10:22.730Z,35.30
2018-03-29T13:12:49.690Z,34.40
2018-03-29T13:15:15.925Z,36.10
2018-03-29T13:17:42.135Z,36.10
2018-03-29T13:20:09.172Z,34.80
2018-03-29T13:22:36.817Z,35.10
2018-03-29T13:25:04.691Z,35.40
2018-03-29T13:27:30.938Z,40.70
2018-03-29T13:29:58.086Z,39.90
2018-03-29T13:32:25.132Z,37.10
2018-03-29T13:34:52.131Z,36.80
2018-03-29T13:37:18.751Z,35.70
2018-03-29T13:39:45.666Z,34.20
2018-03-29T13:42:11.853Z,30.10
2018-03-29T13:44:38.054Z,28.70
2018-03-29T13:47:04.408Z,27.30
2018-03-29T13:49:30.623Z,26.20
2018-03-29T13:51:56.868Z,26.10
2018-03-29T13:54:23.069Z,25.10
2018-03-29T13:56:49.301Z,24.90
2018-03-29T13:59:15.504Z,25.10
2018-03-29T14:01:41.761Z,25.30
2018-03-29T14:04:08.003Z,26.20
2018-03-29T14:06:34.224Z,27.40
2018-03-29T14:09:00.430Z,29.90
2018-03-29T14:11:26.640Z,28.80
2018-03-29T14:13:53.621Z,28.60
2018-03-29T14:16:20.799Z,28.20
2018-03-29T14:18:47.080Z,28.20
2018-03-29T14:21:13.357Z,28.70
2018-03-29T14:23:39.582Z,29.60
2018-03-29T14:26:06.500Z,30.70
2018-03-29T14:28:32.744Z,30.30
2018-03-29T14:30:59.019Z,30.60
2018-03-29T14:33:26.020Z,31.70
2018-03-29T14:35:52.232Z,31.60
2018-03-29T14:38:18.521Z,32.50
2018-03-29T14:40:45.508Z,33.40
2018-03-29T14:43:12.864Z,34.10
2018-03-29T14:45:39.480Z,34.70
2018-03-29T14:50:33.566Z,36.30
2018-03-29T14:53:00.578Z,38.30
2018-03-29T14:55:26.754Z,38.80
2018-03-29T14:57:52.973Z,37.80
2018-03-29T15:00:19.901Z,38.70
2018-03-29T15:02:46.113Z,38.60
2018-03-29T15:05:12.330Z,39.50
2018-03-29T15:07:38.616Z,38.60
2018-03-29T15:10:04.842Z,39.00
2018-03-29T15:12:31.828Z,39.50
2018-03-29T15:14:58.040Z,39.40
2018-03-29T15:17:24.234Z,39.50
2018-03-29T15:19:51.197Z,39.70
2018-03-29T15:22:17.982Z,39.70
2018-03-29T15:24:44.286Z,39.70
2018-03-29T15:27:10.546Z,39.00
2018-03-29T15:29:37.024Z,39.70
2018-03-29T15:32:04.045Z,40.60
2018-03-29T15:34:31.267Z,40.60
2018-03-29T15:36:57.503Z,41.50
2018-03-29T15:39:23.755Z,41.10
2018-03-29T15:41:50.083Z,41.00
2018-03-29T15:44:16.412Z,41.90
2018-03-29T15:46:43.630Z,41.90
2018-03-29T15:49:09.926Z,42.40
2018-03-29T15:51:36.884Z,42.90
2018-03-29T15:54:03.866Z,42.90
2018-03-29T15:56:30.141Z,42.10
2018-03-29T15:58:57.102Z,42.80
2018-03-29T16:01:25.120Z,42.50
2018-03-29T16:03:52.144Z,43.50
2018-03-29T16:06:19.019Z,42.60
2018-03-29T16:08:48.538Z,42.50
2018-03-29T16:11:15.564Z,42.80
2018-03-29T16:13:42.539Z,42.70
2018-03-29T16:16:08.801Z,45.40
2018-03-29T16:18:35.121Z,51.40
2018-03-29T16:21:02.089Z,45.30
2018-03-29T16:23:28.396Z,59.40
2018-03-29T16:25:55.278Z,55.30
2018-03-29T16:28:21.673Z,55.80
2018-03-29T16:30:49.051Z,45.10
2018-03-29T16:33:15.256Z,56.00
2018-03-29T16:35:42.459Z,60.20
2018-03-29T16:38:09.626Z,43.00
2018-03-29T16:40:35.902Z,52.10
2018-03-29T16:43:03.018Z,44.60
2018-03-29T16:45:29.278Z,54.20
2018-03-29T16:47:56.512Z,43.80
2018-03-29T16:50:24.526Z,44.80
2018-03-29T16:52:50.766Z,49.50
2018-03-29T16:55:18.406Z,44.70
2018-03-29T16:57:44.759Z,51.70
2018-03-29T17:00:11.049Z,52.90
2018-03-29T17:02:39.904Z,44.70
2018-03-29T17:05:08.622Z,45.30
2018-03-29T17:07:36.353Z,45.50
2018-03-29T17:10:04.294Z,46.50
2018-03-29T17:12:31.317Z,45.70
2018-03-29T17:14:58.292Z,46.20
2018-03-29T17:17:24.581Z,50.30
2018-03-29T17:19:51.968Z,46.70
2018-03-29T17:22:19.240Z,47.00
2018-03-29T17:24:47.463Z,47.60
2018-03-29T17:27:15.800Z,48.50
2018-03-29T17:29:42.207Z,57.80
2018-03-29T17:32:08.801Z,48.40
2018-03-29T17:34:35.013Z,48.80
2018-03-29T17:37:02.352Z,48.90
2018-03-29T17:39:29.237Z,48.90
2018-03-29T17:41:55.569Z,56.60
2018-03-29T17:44:25.563Z,49.10
2018-03-29T17:46:51.884Z,52.60
2018-03-29T17:49:18.524Z,49.60
2018-03-29T17:51:44.783Z,50.90
2018-03-29T17:54:11.832Z,50.90
2018-03-29T18:06:23.119Z,58.30
2018-03-29T18:08:49.864Z,58.10
2018-03-29T18:11:17.864Z,50.50
2018-03-29T18:13:46.013Z,53.40
2018-03-29T18:16:12.689Z,51.70
2018-03-29T18:28:23.995Z,53.90
2018-03-29T18:30:50.952Z,53.60
2018-03-29T18:33:17.247Z,53.50
2018-03-29T18:35:44.215Z,54.00
2018-03-29T18:38:10.497Z,54.00
2018-03-29T18:40:36.746Z,54.30
2018-03-29T18:43:03.805Z,54.20
2018-03-29T18:45:30.130Z,54.00
2018-03-29T18:47:57.188Z,54.50
2018-03-29T18:50:25.394Z,54.40
2018-03-29T18:52:51.679Z,54.50
2018-03-29T18:55:18.679Z,55.60
2018-03-29T18:57:44.965Z,55.50
2018-03-29T19:00:11.962Z,56.10
2018-03-29T19:02:38.257Z,55.70
2018-03-29T19:05:04.556Z,55.80
2018-03-29T19:07:30.806Z,56.30
2018-03-29T19:09:57.833Z,56.20
2018-03-29T19:12:25.119Z,56.20
2018-03-29T19:14:54.721Z,56.20
2018-03-29T19:17:21.650Z,56.50
2018-03-29T19:19:49.648Z,56.80
2018-03-29T19:22:17.939Z,56.20
2018-03-29T19:24:44.185Z,57.00
2018-03-29T19:27:11.284Z,57.50
2018-03-29T19:29:37.611Z,58.20
2018-03-29T19:32:03.880Z,57.90
2018-03-29T19:34:31.130Z,58.50
2018-03-29T19:36:57.454Z,57.60
2018-03-29T19:39:23.872Z,57.00
2018-03-29T19:41:50.136Z,57.00
2018-03-29T19:44:16.549Z,57.10
2018-03-29T19:46:43.599Z,57.00
2018-03-29T19:49:09.820Z,57.10
2018-03-29T19:51:36.143Z,57.60
2018-03-29T19:54:02.371Z,57.90
2018-03-29T19:56:29.356Z,58.70
2018-03-29T19:58:56.394Z,58.70
2018-03-29T20:01:22.697Z,59.00
2018-03-29T20:03:49.317Z,60.50
2018-03-29T20:06:15.542Z,60.80
2018-03-29T20:08:41.934Z,60.60
2018-03-29T20:11:08.287Z,60.50
2018-03-29T20:13:34.816Z,59.30
2018-03-29T20:16:01.097Z,59.20
2018-03-29T20:18:28.233Z,59.10
2018-03-29T20:20:55.284Z,60.30
2018-03-29T20:23:22.402Z,60.80
2018-03-29T20:25:48.727Z,59.70
2018-03-29T20:28:15.052Z,60.50
2018-03-29T20:30:41.366Z,60.20
2018-03-29T20:33:08.662Z,61.00
2018-03-29T20:35:34.890Z,60.60
2018-03-29T20:38:01.770Z,59.80
2018-03-29T20:40:28.032Z,59.40
2018-03-29T20:42:54.953Z,59.80
2018-03-29T20:45:21.242Z,59.20
2018-03-29T20:47:49.427Z,59.60
2018-03-29T20:50:15.797Z,59.10
2018-03-29T20:52:42.390Z,59.00
2018-03-29T20:55:08.809Z,59.00
2018-03-29T20:57:35.906Z,59.20
2018-03-29T21:00:03.127Z,59.10
2018-03-29T21:02:30.262Z,59.80
2018-03-29T21:04:56.600Z,59.70
2018-03-29T21:07:22.812Z,59.40
2018-03-29T21:09:49.051Z,60.80
2018-03-29T21:12:15.330Z,62.00
2018-03-29T21:14:41.560Z,62.40
2018-03-29T21:17:07.835Z,62.20
2018-03-29T21:19:34.130Z,63.10
2018-03-29T21:22:00.384Z,62.10
2018-03-29T21:24:28.116Z,61.30
2018-03-29T21:26:54.377Z,60.80
2018-03-29T21:29:20.700Z,61.00
2018-03-29T21:31:46.949Z,61.70
2018-03-29T21:34:13.202Z,62.10
2018-03-29T21:36:39.486Z,61.80
2018-03-29T21:39:05.800Z,61.40
2018-03-29T21:41:32.086Z,60.80
2018-03-29T21:43:58.337Z,60.70
2018-03-29T21:46:25.328Z,62.40
2018-03-29T21:48:54.352Z,62.80
2018-03-29T21:51:21.062Z,62.60
2018-03-29T21:53:50.719Z,62.90
2018-03-29T21:56:17.012Z,63.50
2018-03-29T21:58:43.309Z,63.10
2018-03-29T22:01:09.652Z,62.50
2018-03-29T22:03:35.928Z,61.80
2018-03-29T22:06:02.218Z,62.10
2018-03-29T22:08:29.043Z,61.60
2018-03-29T22:10:55.675Z,61.60
2018-03-29T22:13:23.133Z,61.70
2018-03-29T22:15:49.739Z,61.60
2018-03-29T22:18:17.433Z,62.00
2018-03-29T22:20:43.770Z,62.00
2018-03-29T22:23:10.028Z,61.60
2018-03-29T22:25:37.006Z,61.60
2018-03-29T22:28:03.270Z,61.50
2018-03-29T22:30:30.322Z,63.20
2018-03-29T22:32:56.549Z,63.20
2018-03-29T22:35:22.804Z,63.40
2018-03-29T22:37:49.020Z,63.50
2018-03-29T22:40:15.843Z,63.60
2018-03-29T22:42:42.076Z,64.10
2018-03-29T22:45:09.164Z,63.10
2018-03-29T22:47:37.329Z,63.00
2018-03-29T22:50:04.308Z,62.70
2018-03-29T22:52:30.509Z,62.50
2018-03-29T22:54:56.829Z,62.70
2018-03-29T22:57:23.691Z,62.90
2018-03-29T22:59:49.903Z,63.40
2018-03-29T23:02:17.282Z,63.30
2018-03-29T23:04:44.160Z,64.00
2018-03-29T23:07:11.151Z,64.40
2018-03-29T23:09:37.408Z,64.40
2018-03-29T23:12:03.655Z,63.50
2018-03-29T23:14:29.898Z,63.50
2018-03-29T23:16:57.081Z,64.10
2018-03-29T23:19:23.340Z,63.50
2018-03-29T23:21:49.579Z,63.50
2018-03-29T23:24:15.783Z,63.50
2018-03-29T23:26:42.088Z,63.40
2018-03-29T23:29:09.033Z,64.00
2018-03-29T23:31:36.004Z,64.20
2018-03-29T23:34:02.259Z,63.40
2018-03-29T23:36:28.528Z,63.40
2018-03-29T23:38:55.497Z,64.00
2018-03-29T23:41:21.727Z,63.40
2018-03-29T23:43:48.027Z,64.00
2018-03-29T23:46:14.246Z,63.30
2018-03-29T23:48:40.460Z,63.90
2018-03-29T23:51:06.662Z,64.10
2018-03-29T23:53:33.622Z,64.30
2018-03-29T23:55:59.850Z,64.50
2018-03-29T23:58:26.272Z,64.40
